sensor_id;sensor_type;location;lat;lon;timestamp;P1;durP1;ratioP1;P2;durP2;ratioP2
24567;SDS011;12731;52.182;8.716;2023-04-15T00:01:05;8.07;;;7.28;;
24567;SDS011;12731;52.182;8.716;2023-04-15T00:03:31;8.30;;;7.50;;
24567;SDS011;12731;52.182;8.716;2023-04-15T00:06:00;9.27;;;7.85;;
24567;SDS011;12731;52.182;8.716;2023-04-15T00:08:26;8.18;;;7.38;;
24567;SDS011;12731;52.182;8.716;2023-04-15T00:10:53;9.63;;;8.15;;
24567;SDS011;12731;52.182;8.716;2023-04-15T00:13:20;9.18;;;7.63;;
24567;SDS011;12731;52.182;8.716;2023-04-15T00:15:46;8.95;;;8.05;;
24567;SDS011;12731;52.182;8.716;2023-04-15T00:18:13;8.63;;;7.68;;
24567;SDS011;12731;52.182;8.716;2023-04-15T00:20:39;9.40;;;7.88;;
24567;SDS011;12731;52.182;8.716;2023-04-15T00:23:06;10.32;;;8.35;;
24567;SDS011;12731;52.182;8.716;2023-04-15T00:25:33;9.38;;;8.38;;
24567;SDS011;12731;52.182;8.716;2023-04-15T00:27:59;9.32;;;8.18;;
24567;SDS011;12731;52.182;8.716;2023-04-15T00:30:26;10.85;;;8.90;;
24567;SDS011;12731;52.182;8.716;2023-04-15T00:32:52;11.20;;;8.70;;
24567;SDS011;12731;52.182;8.716;2023-04-15T00:35:19;9.85;;;8.32;;
24567;SDS011;12731;52.182;8.716;2023-04-15T00:37:45;10.10;;;8.40;;
24567;SDS011;12731;52.182;8.716;2023-04-15T00:40:12;9.55;;;8.55;;
24567;SDS011;12731;52.182;8.716;2023-04-15T00:42:39;9.95;;;8.43;;
24567;SDS011;12731;52.182;8.716;2023-04-15T00:45:06;9.80;;;8.00;;
24567;SDS011;12731;52.182;8.716;2023-04-15T00:47:34;9.90;;;8.00;;
24567;SDS011;12731;52.182;8.716;2023-04-15T00:50:02;9.63;;;8.63;;
24567;SDS011;12731;52.182;8.716;2023-04-15T00:52:29;11.02;;;8.68;;
24567;SDS011;12731;52.182;8.716;2023-04-15T00:54:55;9.32;;;8.30;;
24567;SDS011;12731;52.182;8.716;2023-04-15T00:57:22;9.13;;;8.13;;
24567;SDS011;12731;52.182;8.716;2023-04-15T00:59:49;9.98;;;8.55;;
24567;SDS011;12731;52.182;8.716;2023-04-15T01:02:16;10.90;;;8.10;;
24567;SDS011;12731;52.182;8.716;2023-04-15T01:04:43;11.68;;;8.77;;
24567;SDS011;12731;52.182;8.716;2023-04-15T01:07:09;11.15;;;8.65;;
24567;SDS011;12731;52.182;8.716;2023-04-15T01:09:36;10.35;;;8.65;;
24567;SDS011;12731;52.182;8.716;2023-04-15T01:12:02;10.20;;;8.90;;
24567;SDS011;12731;52.182;8.716;2023-04-15T01:14:30;11.38;;;8.27;;
24567;SDS011;12731;52.182;8.716;2023-04-15T01:16:57;10.02;;;8.18;;
24567;SDS011;12731;52.182;8.716;2023-04-15T01:19:23;9.88;;;8.88;;
24567;SDS011;12731;52.182;8.716;2023-04-15T01:21:50;10.57;;;8.20;;
24567;SDS011;12731;52.182;8.716;2023-04-15T01:24:17;9.80;;;8.40;;
24567;SDS011;12731;52.182;8.716;2023-04-15T01:26:44;10.05;;;8.13;;
24567;SDS011;12731;52.182;8.716;2023-04-15T01:29:10;8.90;;;8.00;;
24567;SDS011;12731;52.182;8.716;2023-04-15T01:31:37;9.50;;;8.23;;
24567;SDS011;12731;52.182;8.716;2023-04-15T01:34:04;11.95;;;8.73;;
24567;SDS011;12731;52.182;8.716;2023-04-15T01:36:31;11.63;;;8.43;;
24567;SDS011;12731;52.182;8.716;2023-04-15T01:38:57;8.60;;;7.70;;
24567;SDS011;12731;52.182;8.716;2023-04-15T01:41:27;9.13;;;8.23;;
24567;SDS011;12731;52.182;8.716;2023-04-15T01:43:53;11.90;;;8.65;;
24567;SDS011;12731;52.182;8.716;2023-04-15T01:46:20;11.90;;;8.52;;
24567;SDS011;12731;52.182;8.716;2023-04-15T01:48:46;10.02;;;8.27;;
24567;SDS011;12731;52.182;8.716;2023-04-15T01:51:13;8.88;;;7.97;;
24567;SDS011;12731;52.182;8.716;2023-04-15T01:53:39;10.52;;;8.55;;
24567;SDS011;12731;52.182;8.716;2023-04-15T01:56:06;9.45;;;8.45;;
24567;SDS011;12731;52.182;8.716;2023-04-15T01:58:33;11.13;;;8.85;;
24567;SDS011;12731;52.182;8.716;2023-04-15T02:00:59;9.65;;;8.20;;
24567;SDS011;12731;52.182;8.716;2023-04-15T02:03:28;9.57;;;7.88;;
24567;SDS011;12731;52.182;8.716;2023-04-15T02:05:55;9.60;;;8.02;;
24567;SDS011;12731;52.182;8.716;2023-04-15T02:08:22;10.48;;;8.38;;
24567;SDS011;12731;52.182;8.716;2023-04-15T02:10:48;8.90;;;7.97;;
24567;SDS011;12731;52.182;8.716;2023-04-15T02:13:15;9.85;;;8.60;;
24567;SDS011;12731;52.182;8.716;2023-04-15T02:15:48;9.85;;;8.23;;
24567;SDS011;12731;52.182;8.716;2023-04-15T02:18:15;11.13;;;8.60;;
24567;SDS011;12731;52.182;8.716;2023-04-15T02:20:42;9.60;;;8.30;;
24567;SDS011;12731;52.182;8.716;2023-04-15T02:23:09;8.63;;;7.72;;
24567;SDS011;12731;52.182;8.716;2023-04-15T02:25:36;9.20;;;8.25;;
24567;SDS011;12731;52.182;8.716;2023-04-15T02:28:04;9.90;;;8.32;;
24567;SDS011;12731;52.182;8.716;2023-04-15T02:30:32;8.90;;;8.00;;
24567;SDS011;12731;52.182;8.716;2023-04-15T02:32:59;9.82;;;8.25;;
24567;SDS011;12731;52.182;8.716;2023-04-15T02:35:26;9.70;;;7.80;;
24567;SDS011;12731;52.182;8.716;2023-04-15T02:37:52;9.65;;;8.15;;
24567;SDS011;12731;52.182;8.716;2023-04-15T02:40:19;10.23;;;8.63;;
24567;SDS011;12731;52.182;8.716;2023-04-15T02:42:45;10.07;;;7.80;;
24567;SDS011;12731;52.182;8.716;2023-04-15T02:45:12;9.30;;;8.23;;
24567;SDS011;12731;52.182;8.716;2023-04-15T02:47:39;12.43;;;8.70;;
24567;SDS011;12731;52.182;8.716;2023-04-15T02:50:07;9.98;;;8.90;;
24567;SDS011;12731;52.182;8.716;2023-04-15T02:52:35;11.80;;;9.02;;
24567;SDS011;12731;52.182;8.716;2023-04-15T02:55:01;12.05;;;9.68;;
24567;SDS011;12731;52.182;8.716;2023-04-15T02:57:29;13.98;;;9.75;;
24567;SDS011;12731;52.182;8.716;2023-04-15T02:59:56;11.48;;;9.98;;
24567;SDS011;12731;52.182;8.716;2023-04-15T03:02:22;12.40;;;10.50;;
24567;SDS011;12731;52.182;8.716;2023-04-15T03:04:49;12.45;;;10.30;;
24567;SDS011;12731;52.182;8.716;2023-04-15T03:07:16;11.50;;;10.23;;
24567;SDS011;12731;52.182;8.716;2023-04-15T03:09:43;11.50;;;10.10;;
24567;SDS011;12731;52.182;8.716;2023-04-15T03:12:10;13.57;;;10.75;;
24567;SDS011;12731;52.182;8.716;2023-04-15T03:14:37;13.48;;;10.85;;
24567;SDS011;12731;52.182;8.716;2023-04-15T03:17:03;13.10;;;11.05;;
24567;SDS011;12731;52.182;8.716;2023-04-15T03:19:30;12.48;;;11.10;;
24567;SDS011;12731;52.182;8.716;2023-04-15T03:21:57;13.68;;;11.40;;
24567;SDS011;12731;52.182;8.716;2023-04-15T03:24:23;13.65;;;11.48;;
24567;SDS011;12731;52.182;8.716;2023-04-15T03:26:50;15.77;;;11.55;;
24567;SDS011;12731;52.182;8.716;2023-04-15T03:29:16;15.32;;;12.10;;
24567;SDS011;12731;52.182;8.716;2023-04-15T03:31:43;13.63;;;11.43;;
24567;SDS011;12731;52.182;8.716;2023-04-15T03:34:09;14.18;;;11.48;;
24567;SDS011;12731;52.182;8.716;2023-04-15T03:36:36;18.48;;;12.98;;
24567;SDS011;12731;52.182;8.716;2023-04-15T03:39:02;17.08;;;11.95;;
24567;SDS011;12731;52.182;8.716;2023-04-15T03:41:29;14.85;;;12.00;;
24567;SDS011;12731;52.182;8.716;2023-04-15T03:43:56;16.05;;;12.93;;
24567;SDS011;12731;52.182;8.716;2023-04-15T03:46:22;17.02;;;12.70;;
24567;SDS011;12731;52.182;8.716;2023-04-15T03:48:49;18.02;;;12.50;;
24567;SDS011;12731;52.182;8.716;2023-04-15T03:51:15;18.52;;;13.68;;
24567;SDS011;12731;52.182;8.716;2023-04-15T03:53:42;15.98;;;12.90;;
24567;SDS011;12731;52.182;8.716;2023-04-15T03:56:08;16.25;;;13.40;;
24567;SDS011;12731;52.182;8.716;2023-04-15T03:58:35;18.50;;;14.65;;
24567;SDS011;12731;52.182;8.716;2023-04-15T04:01:01;20.70;;;14.55;;
24567;SDS011;12731;52.182;8.716;2023-04-15T04:03:28;19.52;;;14.80;;
24567;SDS011;12731;52.182;8.716;2023-04-15T04:05:54;18.70;;;14.55;;
24567;SDS011;12731;52.182;8.716;2023-04-15T04:08:21;20.25;;;16.10;;
24567;SDS011;12731;52.182;8.716;2023-04-15T04:10:47;20.42;;;15.75;;
24567;SDS011;12731;52.182;8.716;2023-04-15T04:13:14;22.20;;;15.25;;
24567;SDS011;12731;52.182;8.716;2023-04-15T04:15:40;19.95;;;16.08;;
24567;SDS011;12731;52.182;8.716;2023-04-15T04:18:07;21.27;;;15.77;;
24567;SDS011;12731;52.182;8.716;2023-04-15T04:20:33;22.80;;;16.70;;
24567;SDS011;12731;52.182;8.716;2023-04-15T04:23:00;22.13;;;16.63;;
24567;SDS011;12731;52.182;8.716;2023-04-15T04:25:26;22.50;;;16.88;;
24567;SDS011;12731;52.182;8.716;2023-04-15T04:27:53;21.90;;;16.70;;
24567;SDS011;12731;52.182;8.716;2023-04-15T04:30:19;21.02;;;16.35;;
24567;SDS011;12731;52.182;8.716;2023-04-15T04:32:46;22.50;;;17.15;;
24567;SDS011;12731;52.182;8.716;2023-04-15T04:35:13;22.63;;;17.13;;
24567;SDS011;12731;52.182;8.716;2023-04-15T04:37:39;25.33;;;18.38;;
24567;SDS011;12731;52.182;8.716;2023-04-15T04:40:06;23.40;;;18.48;;
24567;SDS011;12731;52.182;8.716;2023-04-15T04:42:33;25.40;;;18.33;;
24567;SDS011;12731;52.182;8.716;2023-04-15T04:44:59;23.30;;;17.33;;
24567;SDS011;12731;52.182;8.716;2023-04-15T04:47:26;23.13;;;18.95;;
24567;SDS011;12731;52.182;8.716;2023-04-15T04:49:52;22.48;;;16.98;;
24567;SDS011;12731;52.182;8.716;2023-04-15T04:52:19;24.83;;;17.25;;
24567;SDS011;12731;52.182;8.716;2023-04-15T04:54:45;22.88;;;17.67;;
24567;SDS011;12731;52.182;8.716;2023-04-15T04:57:12;22.55;;;17.50;;
24567;SDS011;12731;52.182;8.716;2023-04-15T04:59:39;23.73;;;18.73;;
24567;SDS011;12731;52.182;8.716;2023-04-15T05:02:05;24.23;;;17.85;;
24567;SDS011;12731;52.182;8.716;2023-04-15T05:04:32;23.92;;;18.35;;
24567;SDS011;12731;52.182;8.716;2023-04-15T05:06:59;24.33;;;17.52;;
24567;SDS011;12731;52.182;8.716;2023-04-15T05:09:26;26.75;;;19.33;;
24567;SDS011;12731;52.182;8.716;2023-04-15T05:11:52;25.05;;;19.15;;
24567;SDS011;12731;52.182;8.716;2023-04-15T05:14:19;24.98;;;18.83;;
24567;SDS011;12731;52.182;8.716;2023-04-15T05:16:48;23.42;;;18.50;;
24567;SDS011;12731;52.182;8.716;2023-04-15T05:19:14;23.35;;;18.05;;
24567;SDS011;12731;52.182;8.716;2023-04-15T05:21:41;24.08;;;19.05;;
24567;SDS011;12731;52.182;8.716;2023-04-15T05:24:08;26.83;;;20.00;;
24567;SDS011;12731;52.182;8.716;2023-04-15T05:26:34;24.83;;;19.80;;
24567;SDS011;12731;52.182;8.716;2023-04-15T05:29:01;24.52;;;18.77;;
24567;SDS011;12731;52.182;8.716;2023-04-15T05:31:28;25.75;;;18.73;;
24567;SDS011;12731;52.182;8.716;2023-04-15T05:33:54;24.40;;;18.75;;
24567;SDS011;12731;52.182;8.716;2023-04-15T05:36:21;24.83;;;19.77;;
24567;SDS011;12731;52.182;8.716;2023-04-15T05:38:47;25.20;;;18.55;;
24567;SDS011;12731;52.182;8.716;2023-04-15T05:41:13;22.60;;;18.50;;
24567;SDS011;12731;52.182;8.716;2023-04-15T05:43:44;28.33;;;18.65;;
24567;SDS011;12731;52.182;8.716;2023-04-15T05:46:11;24.00;;;18.63;;
24567;SDS011;12731;52.182;8.716;2023-04-15T05:48:38;22.75;;;18.38;;
24567;SDS011;12731;52.182;8.716;2023-04-15T05:51:04;24.30;;;18.27;;
24567;SDS011;12731;52.182;8.716;2023-04-15T05:53:31;21.83;;;17.85;;
24567;SDS011;12731;52.182;8.716;2023-04-15T05:55:58;22.67;;;18.15;;
24567;SDS011;12731;52.182;8.716;2023-04-15T05:58:24;24.58;;;18.70;;
24567;SDS011;12731;52.182;8.716;2023-04-15T06:00:51;24.92;;;18.20;;
24567;SDS011;12731;52.182;8.716;2023-04-15T06:03:17;24.88;;;17.80;;
24567;SDS011;12731;52.182;8.716;2023-04-15T06:05:44;21.98;;;17.75;;
24567;SDS011;12731;52.182;8.716;2023-04-15T06:08:10;23.73;;;18.88;;
24567;SDS011;12731;52.182;8.716;2023-04-15T06:10:37;24.65;;;19.60;;
24567;SDS011;12731;52.182;8.716;2023-04-15T06:13:04;26.02;;;20.23;;
24567;SDS011;12731;52.182;8.716;2023-04-15T06:15:30;24.40;;;19.20;;
24567;SDS011;12731;52.182;8.716;2023-04-15T06:17:57;26.08;;;19.60;;
24567;SDS011;12731;52.182;8.716;2023-04-15T06:20:23;25.15;;;20.13;;
24567;SDS011;12731;52.182;8.716;2023-04-15T06:22:50;27.27;;;20.77;;
24567;SDS011;12731;52.182;8.716;2023-04-15T06:25:17;27.38;;;20.75;;
24567;SDS011;12731;52.182;8.716;2023-04-15T06:27:43;29.77;;;22.23;;
24567;SDS011;12731;52.182;8.716;2023-04-15T06:30:10;28.15;;;21.15;;
24567;SDS011;12731;52.182;8.716;2023-04-15T06:32:37;26.75;;;20.70;;
24567;SDS011;12731;52.182;8.716;2023-04-15T06:35:03;25.70;;;19.98;;
24567;SDS011;12731;52.182;8.716;2023-04-15T06:37:30;26.65;;;20.13;;
24567;SDS011;12731;52.182;8.716;2023-04-15T06:39:57;23.50;;;17.90;;
24567;SDS011;12731;52.182;8.716;2023-04-15T06:42:24;28.63;;;19.40;;
24567;SDS011;12731;52.182;8.716;2023-04-15T06:44:51;25.65;;;20.13;;
24567;SDS011;12731;52.182;8.716;2023-04-15T06:47:17;26.17;;;19.60;;
24567;SDS011;12731;52.182;8.716;2023-04-15T06:49:45;26.85;;;19.45;;
24567;SDS011;12731;52.182;8.716;2023-04-15T06:52:11;26.92;;;20.75;;
24567;SDS011;12731;52.182;8.716;2023-04-15T06:54:38;25.17;;;18.98;;
24567;SDS011;12731;52.182;8.716;2023-04-15T06:57:05;25.17;;;19.25;;
24567;SDS011;12731;52.182;8.716;2023-04-15T06:59:32;27.33;;;19.77;;
24567;SDS011;12731;52.182;8.716;2023-04-15T07:01:58;26.77;;;19.42;;
24567;SDS011;12731;52.182;8.716;2023-04-15T07:04:25;26.65;;;20.02;;
24567;SDS011;12731;52.182;8.716;2023-04-15T07:06:53;30.20;;;21.17;;
24567;SDS011;12731;52.182;8.716;2023-04-15T07:09:21;30.50;;;21.30;;
24567;SDS011;12731;52.182;8.716;2023-04-15T07:11:48;34.38;;;22.10;;
24567;SDS011;12731;52.182;8.716;2023-04-15T07:14:15;30.75;;;21.77;;
24567;SDS011;12731;52.182;8.716;2023-04-15T07:16:41;34.03;;;22.83;;
24567;SDS011;12731;52.182;8.716;2023-04-15T07:19:08;33.22;;;22.25;;
24567;SDS011;12731;52.182;8.716;2023-04-15T07:21:34;34.47;;;22.30;;
24567;SDS011;12731;52.182;8.716;2023-04-15T07:24:01;31.90;;;21.15;;
24567;SDS011;12731;52.182;8.716;2023-04-15T07:26:28;33.40;;;22.08;;
24567;SDS011;12731;52.182;8.716;2023-04-15T07:28:54;30.40;;;20.60;;
24567;SDS011;12731;52.182;8.716;2023-04-15T07:31:21;31.38;;;21.42;;
24567;SDS011;12731;52.182;8.716;2023-04-15T07:33:48;33.25;;;20.27;;
24567;SDS011;12731;52.182;8.716;2023-04-15T07:36:14;26.52;;;18.88;;
24567;SDS011;12731;52.182;8.716;2023-04-15T07:38:40;30.15;;;20.05;;
24567;SDS011;12731;52.182;8.716;2023-04-15T07:41:07;29.30;;;18.42;;
24567;SDS011;12731;52.182;8.716;2023-04-15T07:43:34;26.75;;;19.10;;
24567;SDS011;12731;52.182;8.716;2023-04-15T07:46:00;26.10;;;18.35;;
24567;SDS011;12731;52.182;8.716;2023-04-15T07:48:27;26.60;;;17.95;;
24567;SDS011;12731;52.182;8.716;2023-04-15T07:50:53;25.55;;;18.50;;
24567;SDS011;12731;52.182;8.716;2023-04-15T07:53:20;25.70;;;18.05;;
24567;SDS011;12731;52.182;8.716;2023-04-15T07:55:46;28.90;;;18.83;;
24567;SDS011;12731;52.182;8.716;2023-04-15T07:58:13;26.13;;;18.73;;
24567;SDS011;12731;52.182;8.716;2023-04-15T08:00:39;25.50;;;18.27;;
24567;SDS011;12731;52.182;8.716;2023-04-15T08:03:06;27.98;;;19.58;;
24567;SDS011;12731;52.182;8.716;2023-04-15T08:05:33;28.08;;;20.02;;
24567;SDS011;12731;52.182;8.716;2023-04-15T08:08:00;27.80;;;19.77;;
24567;SDS011;12731;52.182;8.716;2023-04-15T08:10:28;27.65;;;19.17;;
24567;SDS011;12731;52.182;8.716;2023-04-15T08:12:55;25.80;;;18.23;;
24567;SDS011;12731;52.182;8.716;2023-04-15T08:15:21;27.42;;;18.67;;
24567;SDS011;12731;52.182;8.716;2023-04-15T08:17:48;26.00;;;18.10;;
24567;SDS011;12731;52.182;8.716;2023-04-15T08:20:15;25.85;;;17.15;;
24567;SDS011;12731;52.182;8.716;2023-04-15T08:22:42;24.25;;;17.63;;
24567;SDS011;12731;52.182;8.716;2023-04-15T08:25:08;23.73;;;17.92;;
24567;SDS011;12731;52.182;8.716;2023-04-15T08:27:35;22.05;;;16.77;;
24567;SDS011;12731;52.182;8.716;2023-04-15T08:30:01;22.98;;;16.98;;
24567;SDS011;12731;52.182;8.716;2023-04-15T08:32:30;21.63;;;16.40;;
24567;SDS011;12731;52.182;8.716;2023-04-15T08:34:57;23.52;;;17.05;;
24567;SDS011;12731;52.182;8.716;2023-04-15T08:37:23;21.20;;;16.15;;
24567;SDS011;12731;52.182;8.716;2023-04-15T08:39:50;21.42;;;16.67;;
24567;SDS011;12731;52.182;8.716;2023-04-15T08:42:16;21.60;;;15.90;;
24567;SDS011;12731;52.182;8.716;2023-04-15T08:44:44;22.13;;;16.08;;
24567;SDS011;12731;52.182;8.716;2023-04-15T08:47:12;20.83;;;15.20;;
24567;SDS011;12731;52.182;8.716;2023-04-15T08:49:39;22.00;;;15.25;;
24567;SDS011;12731;52.182;8.716;2023-04-15T08:52:07;20.10;;;15.25;;
24567;SDS011;12731;52.182;8.716;2023-04-15T08:54:34;19.10;;;14.25;;
24567;SDS011;12731;52.182;8.716;2023-04-15T08:57:01;19.13;;;13.57;;
24567;SDS011;12731;52.182;8.716;2023-04-15T08:59:29;20.05;;;14.43;;
24567;SDS011;12731;52.182;8.716;2023-04-15T09:01:56;19.17;;;14.80;;
24567;SDS011;12731;52.182;8.716;2023-04-15T09:04:23;16.50;;;13.57;;
24567;SDS011;12731;52.182;8.716;2023-04-15T09:06:50;17.00;;;12.90;;
24567;SDS011;12731;52.182;8.716;2023-04-15T09:09:17;16.60;;;13.00;;
24567;SDS011;12731;52.182;8.716;2023-04-15T09:11:43;14.55;;;11.77;;
24567;SDS011;12731;52.182;8.716;2023-04-15T09:14:10;15.73;;;12.95;;
24567;SDS011;12731;52.182;8.716;2023-04-15T09:16:56;14.00;;;11.50;;
24567;SDS011;12731;52.182;8.716;2023-04-15T09:19:27;16.00;;;12.15;;
24567;SDS011;12731;52.182;8.716;2023-04-15T09:21:55;13.02;;;10.90;;
24567;SDS011;12731;52.182;8.716;2023-04-15T09:24:24;13.38;;;10.38;;
24567;SDS011;12731;52.182;8.716;2023-04-15T09:26:52;13.05;;;10.38;;
24567;SDS011;12731;52.182;8.716;2023-04-15T09:29:20;12.73;;;9.80;;
24567;SDS011;12731;52.182;8.716;2023-04-15T09:31:49;12.35;;;9.55;;
24567;SDS011;12731;52.182;8.716;2023-04-15T09:34:16;12.90;;;9.63;;
24567;SDS011;12731;52.182;8.716;2023-04-15T09:41:41;11.88;;;9.05;;
24567;SDS011;12731;52.182;8.716;2023-04-15T09:44:25;10.30;;;8.50;;
24567;SDS011;12731;52.182;8.716;2023-04-15T09:49:18;11.63;;;9.77;;
24567;SDS011;12731;52.182;8.716;2023-04-15T09:51:46;12.20;;;10.23;;
24567;SDS011;12731;52.182;8.716;2023-04-15T09:54:36;11.23;;;10.00;;
24567;SDS011;12731;52.182;8.716;2023-04-15T09:57:07;13.13;;;10.50;;
24567;SDS011;12731;52.182;8.716;2023-04-15T09:59:35;10.68;;;9.40;;
24567;SDS011;12731;52.182;8.716;2023-04-15T10:02:04;11.57;;;9.93;;
24567;SDS011;12731;52.182;8.716;2023-04-15T10:07:02;14.02;;;10.23;;
24567;SDS011;12731;52.182;8.716;2023-04-15T10:09:30;12.90;;;10.85;;
24567;SDS011;12731;52.182;8.716;2023-04-15T10:11:58;13.27;;;11.40;;
24567;SDS011;12731;52.182;8.716;2023-04-15T10:14:26;13.25;;;11.05;;
24567;SDS011;12731;52.182;8.716;2023-04-15T10:16:54;12.50;;;10.57;;
24567;SDS011;12731;52.182;8.716;2023-04-15T10:19:21;12.82;;;11.02;;
24567;SDS011;12731;52.182;8.716;2023-04-15T10:21:50;11.82;;;10.35;;
24567;SDS011;12731;52.182;8.716;2023-04-15T10:24:17;11.63;;;10.43;;
24567;SDS011;12731;52.182;8.716;2023-04-15T10:26:44;13.25;;;10.82;;
24567;SDS011;12731;52.182;8.716;2023-04-15T10:29:10;11.52;;;10.00;;
24567;SDS011;12731;52.182;8.716;2023-04-15T10:31:37;12.43;;;10.80;;
24567;SDS011;12731;52.182;8.716;2023-04-15T10:34:04;11.55;;;9.88;;
24567;SDS011;12731;52.182;8.716;2023-04-15T10:36:31;11.55;;;10.07;;
24567;SDS011;12731;52.182;8.716;2023-04-15T10:38:58;12.15;;;10.85;;
24567;SDS011;12731;52.182;8.716;2023-04-15T10:41:25;12.40;;;11.10;;
24567;SDS011;12731;52.182;8.716;2023-04-15T10:46:36;11.13;;;9.93;;
24567;SDS011;12731;52.182;8.716;2023-04-15T10:49:07;13.02;;;10.80;;
24567;SDS011;12731;52.182;8.716;2023-04-15T10:51:42;13.25;;;11.05;;
24567;SDS011;12731;52.182;8.716;2023-04-15T10:54:26;12.73;;;10.90;;
24567;SDS011;12731;52.182;8.716;2023-04-15T10:59:25;13.20;;;10.73;;
24567;SDS011;12731;52.182;8.716;2023-04-15T11:01:52;11.90;;;10.27;;
24567;SDS011;12731;52.182;8.716;2023-04-15T11:10:48;11.75;;;10.55;;
24567;SDS011;12731;52.182;8.716;2023-04-15T11:12:57;9.88;;;8.88;;
24567;SDS011;12731;52.182;8.716;2023-04-15T11:15:28;10.73;;;9.30;;
24567;SDS011;12731;52.182;8.716;2023-04-15T11:17:56;9.50;;;8.45;;
24567;SDS011;12731;52.182;8.716;2023-04-15T11:20:24;11.48;;;8.75;;
24567;SDS011;12731;52.182;8.716;2023-04-15T11:22:52;9.82;;;8.55;;
24567;SDS011;12731;52.182;8.716;2023-04-15T11:25:39;8.60;;;7.35;;
24567;SDS011;12731;52.182;8.716;2023-04-15T11:28:06;8.85;;;7.95;;
24567;SDS011;12731;52.182;8.716;2023-04-15T11:30:34;8.05;;;7.25;;
24567;SDS011;12731;52.182;8.716;2023-04-15T11:33:05;8.00;;;6.90;;
24567;SDS011;12731;52.182;8.716;2023-04-15T11:35:38;7.72;;;6.93;;
24567;SDS011;12731;52.182;8.716;2023-04-15T11:38:10;6.78;;;6.07;;
24567;SDS011;12731;52.182;8.716;2023-04-15T11:40:38;6.32;;;5.72;;
24567;SDS011;12731;52.182;8.716;2023-04-15T11:45:59;5.97;;;5.38;;
24567;SDS011;12731;52.182;8.716;2023-04-15T11:48:26;5.47;;;4.88;;
24567;SDS011;12731;52.182;8.716;2023-04-15T11:51:04;5.03;;;4.53;;
24567;SDS011;12731;52.182;8.716;2023-04-15T11:53:42;5.55;;;4.90;;
24567;SDS011;12731;52.182;8.716;2023-04-15T11:56:09;5.03;;;4.53;;
24567;SDS011;12731;52.182;8.716;2023-04-15T11:58:37;5.15;;;4.68;;
24567;SDS011;12731;52.182;8.716;2023-04-15T12:01:04;5.03;;;4.60;;
24567;SDS011;12731;52.182;8.716;2023-04-15T12:03:38;5.63;;;5.13;;
24567;SDS011;12731;52.182;8.716;2023-04-15T12:06:17;5.68;;;5.10;;
24567;SDS011;12731;52.182;8.716;2023-04-15T12:14:05;5.43;;;4.93;;
24567;SDS011;12731;52.182;8.716;2023-04-15T12:16:33;6.85;;;5.63;;
24567;SDS011;12731;52.182;8.716;2023-04-15T12:19:15;6.47;;;5.78;;
24567;SDS011;12731;52.182;8.716;2023-04-15T12:21:45;6.00;;;5.40;;
24567;SDS011;12731;52.182;8.716;2023-04-15T12:24:13;6.35;;;5.50;;
24567;SDS011;12731;52.182;8.716;2023-04-15T12:26:43;5.57;;;5.07;;
24567;SDS011;12731;52.182;8.716;2023-04-15T12:29:12;6.50;;;4.85;;
24567;SDS011;12731;52.182;8.716;2023-04-15T12:31:49;6.85;;;6.25;;
24567;SDS011;12731;52.182;8.716;2023-04-15T12:34:27;7.65;;;6.55;;
24567;SDS011;12731;52.182;8.716;2023-04-15T12:36:55;9.13;;;7.38;;
24567;SDS011;12731;52.182;8.716;2023-04-15T12:39:22;7.55;;;6.75;;
24567;SDS011;12731;52.182;8.716;2023-04-15T12:41:50;7.40;;;6.60;;
24567;SDS011;12731;52.182;8.716;2023-04-15T12:44:17;7.05;;;6.35;;
24567;SDS011;12731;52.182;8.716;2023-04-15T12:46:44;7.15;;;6.30;;
24567;SDS011;12731;52.182;8.716;2023-04-15T12:49:11;7.60;;;6.70;;
24567;SDS011;12731;52.182;8.716;2023-04-15T12:51:39;8.02;;;6.75;;
24567;SDS011;12731;52.182;8.716;2023-04-15T12:54:06;7.65;;;6.85;;
24567;SDS011;12731;52.182;8.716;2023-04-15T12:56:33;9.75;;;8.38;;
24567;SDS011;12731;52.182;8.716;2023-04-15T12:58:59;9.43;;;8.40;;
24567;SDS011;12731;52.182;8.716;2023-04-15T13:01:26;9.50;;;8.50;;
24567;SDS011;12731;52.182;8.716;2023-04-15T13:03:52;10.60;;;8.32;;
24567;SDS011;12731;52.182;8.716;2023-04-15T13:06:19;11.80;;;9.10;;
24567;SDS011;12731;52.182;8.716;2023-04-15T13:08:46;9.48;;;8.48;;
24567;SDS011;12731;52.182;8.716;2023-04-15T13:11:24;11.77;;;9.52;;
24567;SDS011;12731;52.182;8.716;2023-04-15T13:13:51;11.25;;;9.90;;
24567;SDS011;12731;52.182;8.716;2023-04-15T13:16:18;11.73;;;10.10;;
24567;SDS011;12731;52.182;8.716;2023-04-15T13:18:44;12.38;;;10.13;;
24567;SDS011;12731;52.182;8.716;2023-04-15T13:21:11;11.77;;;10.48;;
24567;SDS011;12731;52.182;8.716;2023-04-15T13:23:39;13.43;;;10.50;;
24567;SDS011;12731;52.182;8.716;2023-04-15T13:26:06;14.05;;;11.00;;
24567;SDS011;12731;52.182;8.716;2023-04-15T13:28:33;12.38;;;10.65;;
24567;SDS011;12731;52.182;8.716;2023-04-15T13:31:00;12.35;;;10.73;;
24567;SDS011;12731;52.182;8.716;2023-04-15T13:33:27;13.68;;;11.25;;
24567;SDS011;12731;52.182;8.716;2023-04-15T13:35:54;14.30;;;11.50;;
24567;SDS011;12731;52.182;8.716;2023-04-15T13:38:20;15.20;;;12.43;;
24567;SDS011;12731;52.182;8.716;2023-04-15T13:40:47;16.35;;;12.40;;
24567;SDS011;12731;52.182;8.716;2023-04-15T13:43:13;15.88;;;12.70;;
24567;SDS011;12731;52.182;8.716;2023-04-15T13:45:40;14.77;;;11.77;;
24567;SDS011;12731;52.182;8.716;2023-04-15T13:48:06;13.38;;;11.40;;
24567;SDS011;12731;52.182;8.716;2023-04-15T13:50:33;14.88;;;12.40;;
24567;SDS011;12731;52.182;8.716;2023-04-15T13:52:59;13.70;;;12.00;;
24567;SDS011;12731;52.182;8.716;2023-04-15T13:55:26;16.10;;;12.48;;
24567;SDS011;12731;52.182;8.716;2023-04-15T13:57:53;14.70;;;11.80;;
24567;SDS011;12731;52.182;8.716;2023-04-15T14:00:20;15.00;;;12.10;;
24567;SDS011;12731;52.182;8.716;2023-04-15T14:02:47;18.80;;;13.57;;
24567;SDS011;12731;52.182;8.716;2023-04-15T14:05:14;16.92;;;13.90;;
24567;SDS011;12731;52.182;8.716;2023-04-15T14:07:40;18.10;;;14.60;;
24567;SDS011;12731;52.182;8.716;2023-04-15T14:10:07;16.90;;;14.13;;
24567;SDS011;12731;52.182;8.716;2023-04-15T14:12:34;23.02;;;15.80;;
24567;SDS011;12731;52.182;8.716;2023-04-15T14:15:00;20.67;;;15.73;;
24567;SDS011;12731;52.182;8.716;2023-04-15T14:17:27;21.02;;;15.95;;
24567;SDS011;12731;52.182;8.716;2023-04-15T14:19:53;21.65;;;16.15;;
24567;SDS011;12731;52.182;8.716;2023-04-15T14:22:20;26.52;;;19.17;;
24567;SDS011;12731;52.182;8.716;2023-04-15T14:24:46;23.10;;;17.88;;
24567;SDS011;12731;52.182;8.716;2023-04-15T14:27:14;24.40;;;17.77;;
24567;SDS011;12731;52.182;8.716;2023-04-15T14:29:41;23.35;;;18.10;;
24567;SDS011;12731;52.182;8.716;2023-04-15T14:32:08;23.35;;;18.08;;
24567;SDS011;12731;52.182;8.716;2023-04-15T14:34:37;25.25;;;19.40;;
24567;SDS011;12731;52.182;8.716;2023-04-15T14:37:04;29.10;;;20.00;;
24567;SDS011;12731;52.182;8.716;2023-04-15T14:39:31;25.90;;;19.20;;
24567;SDS011;12731;52.182;8.716;2023-04-15T14:41:57;30.27;;;20.48;;
24567;SDS011;12731;52.182;8.716;2023-04-15T14:44:24;28.13;;;20.38;;
24567;SDS011;12731;52.182;8.716;2023-04-15T14:46:50;31.25;;;22.17;;
24567;SDS011;12731;52.182;8.716;2023-04-15T14:49:17;30.27;;;21.25;;
24567;SDS011;12731;52.182;8.716;2023-04-15T14:51:43;31.65;;;22.02;;
24567;SDS011;12731;52.182;8.716;2023-04-15T14:54:11;30.70;;;21.27;;
24567;SDS011;12731;52.182;8.716;2023-04-15T14:56:37;31.83;;;22.05;;
24567;SDS011;12731;52.182;8.716;2023-04-15T14:59:04;30.15;;;21.38;;